sensor_id;sensor_type;location;lat;lon;timestamp;P1;durP1;ratioP1;P2;durP2;ratioP2
75941;SDS011;64622;46.220;19.878;2022-11-12T00:01:12;81.95;;;31.37;;
75941;SDS011;64622;46.220;19.878;2022-11-12T00:03:57;97.88;;;31.92;;
75941;SDS011;64622;46.220;19.878;2022-11-12T00:06:41;94.40;;;32.03;;
75941;SDS011;64622;46.220;19.878;2022-11-12T00:09:27;95.62;;;32.85;;
75941;SDS011;64622;46.220;19.878;2022-11-12T00:12:12;89.20;;;31.60;;
75941;SDS011;64622;46.220;19.878;2022-11-12T00:14:57;87.85;;;31.58;;
75941;SDS011;64622;46.220;19.878;2022-11-12T00:17:42;80.05;;;30.05;;
75941;SDS011;64622;46.220;19.878;2022-11-12T00:20:27;76.23;;;30.37;;
75941;SDS011;64622;46.220;19.878;2022-11-12T00:23:12;81.50;;;30.33;;
75941;SDS011;64622;46.220;19.878;2022-11-12T00:25:59;94.68;;;32.20;;
75941;SDS011;64622;46.220;19.878;2022-11-12T00:28:44;84.10;;;30.90;;
75941;SDS011;64622;46.220;19.878;2022-11-12T00:31:29;82.20;;;29.98;;
75941;SDS011;64622;46.220;19.878;2022-11-12T00:34:14;86.27;;;30.97;;
75941;SDS011;64622;46.220;19.878;2022-11-12T00:37:00;91.78;;;31.37;;
75941;SDS011;64622;46.220;19.878;2022-11-12T00:39:46;88.22;;;31.12;;
75941;SDS011;64622;46.220;19.878;2022-11-12T00:42:31;84.43;;;30.37;;
75941;SDS011;64622;46.220;19.878;2022-11-12T00:45:16;86.40;;;30.73;;
75941;SDS011;64622;46.220;19.878;2022-11-12T00:48:02;79.97;;;29.90;;
75941;SDS011;64622;46.220;19.878;2022-11-12T00:50:47;77.45;;;30.37;;
75941;SDS011;64622;46.220;19.878;2022-11-12T00:53:32;69.85;;;29.00;;
75941;SDS011;64622;46.220;19.878;2022-11-12T00:56:17;67.53;;;27.98;;
75941;SDS011;64622;46.220;19.878;2022-11-12T00:59:02;75.37;;;28.25;;
75941;SDS011;64622;46.220;19.878;2022-11-12T01:01:47;65.97;;;28.20;;
75941;SDS011;64622;46.220;19.878;2022-11-12T01:04:33;67.18;;;27.15;;
75941;SDS011;64622;46.220;19.878;2022-11-12T01:07:18;80.18;;;28.92;;
75941;SDS011;64622;46.220;19.878;2022-11-12T01:10:04;79.50;;;29.55;;
75941;SDS011;64622;46.220;19.878;2022-11-12T01:12:49;75.45;;;27.87;;
75941;SDS011;64622;46.220;19.878;2022-11-12T01:15:38;78.83;;;30.27;;
75941;SDS011;64622;46.220;19.878;2022-11-12T01:18:24;72.18;;;28.67;;
75941;SDS011;64622;46.220;19.878;2022-11-12T01:21:09;75.68;;;29.73;;
75941;SDS011;64622;46.220;19.878;2022-11-12T01:23:55;70.78;;;28.80;;
75941;SDS011;64622;46.220;19.878;2022-11-12T01:26:42;71.50;;;28.52;;
75941;SDS011;64622;46.220;19.878;2022-11-12T01:29:26;75.13;;;28.17;;
75941;SDS011;64622;46.220;19.878;2022-11-12T01:32:12;65.37;;;27.75;;
75941;SDS011;64622;46.220;19.878;2022-11-12T01:34:57;67.65;;;27.40;;
75941;SDS011;64622;46.220;19.878;2022-11-12T01:37:42;66.60;;;27.95;;
75941;SDS011;64622;46.220;19.878;2022-11-12T01:40:27;60.72;;;26.17;;
75941;SDS011;64622;46.220;19.878;2022-11-12T01:43:12;61.83;;;25.20;;
75941;SDS011;64622;46.220;19.878;2022-11-12T01:45:58;63.90;;;27.23;;
75941;SDS011;64622;46.220;19.878;2022-11-12T01:49:04;58.97;;;26.37;;
75941;SDS011;64622;46.220;19.878;2022-11-12T01:51:53;60.22;;;25.83;;
75941;SDS011;64622;46.220;19.878;2022-11-12T01:54:41;64.30;;;26.02;;
75941;SDS011;64622;46.220;19.878;2022-11-12T01:57:30;57.20;;;23.80;;
75941;SDS011;64622;46.220;19.878;2022-11-12T02:00:22;52.53;;;23.90;;
75941;SDS011;64622;46.220;19.878;2022-11-12T02:03:20;49.47;;;24.17;;
75941;SDS011;64622;46.220;19.878;2022-11-12T02:06:08;50.05;;;23.30;;
75941;SDS011;64622;46.220;19.878;2022-11-12T02:08:57;49.67;;;22.73;;
75941;SDS011;64622;46.220;19.878;2022-11-12T02:11:42;54.80;;;23.53;;
75941;SDS011;64622;46.220;19.878;2022-11-12T02:14:28;46.30;;;23.12;;
75941;SDS011;64622;46.220;19.878;2022-11-12T02:17:14;47.65;;;22.48;;
75941;SDS011;64622;46.220;19.878;2022-11-12T02:19:59;47.40;;;23.00;;
75941;SDS011;64622;46.220;19.878;2022-11-12T02:22:44;45.25;;;22.83;;
75941;SDS011;64622;46.220;19.878;2022-11-12T02:25:30;45.03;;;22.77;;
75941;SDS011;64622;46.220;19.878;2022-11-12T02:28:15;49.67;;;23.50;;
75941;SDS011;64622;46.220;19.878;2022-11-12T02:31:01;49.67;;;23.27;;
75941;SDS011;64622;46.220;19.878;2022-11-12T02:33:46;45.03;;;22.37;;
75941;SDS011;64622;46.220;19.878;2022-11-12T02:36:31;46.90;;;23.75;;
75941;SDS011;64622;46.220;19.878;2022-11-12T02:39:16;46.43;;;24.57;;
75941;SDS011;64622;46.220;19.878;2022-11-12T02:42:01;48.13;;;23.30;;
75941;SDS011;64622;46.220;19.878;2022-11-12T02:44:47;39.35;;;21.58;;
75941;SDS011;64622;46.220;19.878;2022-11-12T02:47:32;49.15;;;24.98;;
75941;SDS011;64622;46.220;19.878;2022-11-12T02:50:17;51.45;;;24.87;;
75941;SDS011;64622;46.220;19.878;2022-11-12T02:53:03;52.70;;;25.63;;
75941;SDS011;64622;46.220;19.878;2022-11-12T02:55:48;51.08;;;24.20;;
75941;SDS011;64622;46.220;19.878;2022-11-12T02:58:33;49.90;;;23.33;;
75941;SDS011;64622;46.220;19.878;2022-11-12T03:01:18;51.70;;;24.08;;
75941;SDS011;64622;46.220;19.878;2022-11-12T03:04:03;48.63;;;23.58;;
75941;SDS011;64622;46.220;19.878;2022-11-12T03:06:48;45.30;;;22.73;;
75941;SDS011;64622;46.220;19.878;2022-11-12T03:09:33;45.12;;;22.35;;
75941;SDS011;64622;46.220;19.878;2022-11-12T03:12:18;43.20;;;22.33;;
75941;SDS011;64622;46.220;19.878;2022-11-12T03:15:03;40.00;;;21.58;;
75941;SDS011;64622;46.220;19.878;2022-11-12T03:17:49;46.80;;;22.80;;
75941;SDS011;64622;46.220;19.878;2022-11-12T03:20:34;43.30;;;21.93;;
75941;SDS011;64622;46.220;19.878;2022-11-12T03:23:19;45.03;;;23.02;;
75941;SDS011;64622;46.220;19.878;2022-11-12T03:26:04;48.15;;;23.15;;
75941;SDS011;64622;46.220;19.878;2022-11-12T03:28:50;41.30;;;20.98;;
75941;SDS011;64622;46.220;19.878;2022-11-12T03:31:35;49.63;;;22.83;;
75941;SDS011;64622;46.220;19.878;2022-11-12T03:34:20;43.77;;;22.67;;
75941;SDS011;64622;46.220;19.878;2022-11-12T03:37:05;43.78;;;21.60;;
75941;SDS011;64622;46.220;19.878;2022-11-12T03:39:52;41.00;;;19.92;;
75941;SDS011;64622;46.220;19.878;2022-11-12T03:42:37;40.33;;;22.00;;
75941;SDS011;64622;46.220;19.878;2022-11-12T03:45:23;42.03;;;21.52;;
75941;SDS011;64622;46.220;19.878;2022-11-12T03:48:10;37.40;;;20.43;;
75941;SDS011;64622;46.220;19.878;2022-11-12T03:50:58;41.75;;;20.70;;
75941;SDS011;64622;46.220;19.878;2022-11-12T03:53:43;39.30;;;19.95;;
75941;SDS011;64622;46.220;19.878;2022-11-12T03:56:28;39.03;;;20.52;;
75941;SDS011;64622;46.220;19.878;2022-11-12T03:59:13;39.97;;;21.85;;
75941;SDS011;64622;46.220;19.878;2022-11-12T04:01:58;43.17;;;21.23;;
75941;SDS011;64622;46.220;19.878;2022-11-12T04:04:43;38.50;;;20.17;;
75941;SDS011;64622;46.220;19.878;2022-11-12T04:08:03;39.75;;;20.52;;
75941;SDS011;64622;46.220;19.878;2022-11-12T04:11:15;41.63;;;20.45;;
75941;SDS011;64622;46.220;19.878;2022-11-12T04:14:01;44.05;;;21.87;;
75941;SDS011;64622;46.220;19.878;2022-11-12T04:16:46;40.70;;;20.20;;
75941;SDS011;64622;46.220;19.878;2022-11-12T04:19:50;43.10;;;22.37;;
75941;SDS011;64622;46.220;19.878;2022-11-12T04:22:53;44.10;;;21.83;;
75941;SDS011;64622;46.220;19.878;2022-11-12T04:25:39;42.50;;;23.52;;
75941;SDS011;64622;46.220;19.878;2022-11-12T04:28:43;42.65;;;22.37;;
75941;SDS011;64622;46.220;19.878;2022-11-12T04:31:48;60.33;;;31.53;;
75941;SDS011;64622;46.220;19.878;2022-11-12T04:34:33;70.25;;;34.03;;
75941;SDS011;64622;46.220;19.878;2022-11-12T04:37:19;66.05;;;32.40;;
75941;SDS011;64622;46.220;19.878;2022-11-12T04:40:05;58.30;;;29.73;;
75941;SDS011;64622;46.220;19.878;2022-11-12T04:43:12;58.50;;;29.15;;
75941;SDS011;64622;46.220;19.878;2022-11-12T04:46:18;53.60;;;27.50;;
75941;SDS011;64622;46.220;19.878;2022-11-12T04:49:03;54.58;;;28.73;;
75941;SDS011;64622;46.220;19.878;2022-11-12T04:51:48;64.90;;;31.27;;
75941;SDS011;64622;46.220;19.878;2022-11-12T04:54:49;52.15;;;25.98;;
75941;SDS011;64622;46.220;19.878;2022-11-12T04:57:34;52.40;;;26.80;;
75941;SDS011;64622;46.220;19.878;2022-11-12T05:00:20;58.90;;;30.13;;
75941;SDS011;64622;46.220;19.878;2022-11-12T05:03:05;65.03;;;30.50;;
75941;SDS011;64622;46.220;19.878;2022-11-12T05:05:50;71.37;;;35.25;;
75941;SDS011;64622;46.220;19.878;2022-11-12T05:08:35;118.50;;;54.88;;
75941;SDS011;64622;46.220;19.878;2022-11-12T05:11:20;201.68;;;91.53;;
75941;SDS011;64622;46.220;19.878;2022-11-12T05:14:05;148.30;;;70.33;;
75941;SDS011;64622;46.220;19.878;2022-11-12T05:16:50;111.65;;;51.42;;
75941;SDS011;64622;46.220;19.878;2022-11-12T05:19:36;116.60;;;54.10;;
75941;SDS011;64622;46.220;19.878;2022-11-12T05:22:21;118.10;;;57.08;;
75941;SDS011;64622;46.220;19.878;2022-11-12T05:25:06;132.60;;;64.10;;
75941;SDS011;64622;46.220;19.878;2022-11-12T05:27:51;141.27;;;62.97;;
75941;SDS011;64622;46.220;19.878;2022-11-12T05:30:36;129.35;;;62.13;;
75941;SDS011;64622;46.220;19.878;2022-11-12T05:33:21;115.57;;;54.63;;
75941;SDS011;64622;46.220;19.878;2022-11-12T05:36:07;115.80;;;52.88;;
75941;SDS011;64622;46.220;19.878;2022-11-12T05:38:52;113.95;;;54.80;;
75941;SDS011;64622;46.220;19.878;2022-11-12T05:41:37;109.03;;;52.83;;
75941;SDS011;64622;46.220;19.878;2022-11-12T05:44:22;103.05;;;51.28;;
75941;SDS011;64622;46.220;19.878;2022-11-12T05:47:07;96.60;;;48.17;;
75941;SDS011;64622;46.220;19.878;2022-11-12T05:49:52;97.22;;;46.30;;
75941;SDS011;64622;46.220;19.878;2022-11-12T05:52:37;94.22;;;47.15;;
75941;SDS011;64622;46.220;19.878;2022-11-12T05:55:21;68.20;;;35.10;;
75941;SDS011;64622;46.220;19.878;2022-11-12T05:58:07;61.67;;;31.37;;
75941;SDS011;64622;46.220;19.878;2022-11-12T06:00:52;64.20;;;32.60;;
75941;SDS011;64622;46.220;19.878;2022-11-12T06:03:37;81.15;;;38.72;;
75941;SDS011;64622;46.220;19.878;2022-11-12T06:06:22;80.65;;;44.60;;
75941;SDS011;64622;46.220;19.878;2022-11-12T06:09:07;70.13;;;39.00;;
75941;SDS011;64622;46.220;19.878;2022-11-12T06:11:53;57.95;;;32.30;;
75941;SDS011;64622;46.220;19.878;2022-11-12T06:14:37;53.65;;;28.73;;
75941;SDS011;64622;46.220;19.878;2022-11-12T06:17:22;53.58;;;29.17;;
75941;SDS011;64622;46.220;19.878;2022-11-12T06:20:08;60.50;;;32.45;;
75941;SDS011;64622;46.220;19.878;2022-11-12T06:22:53;57.87;;;31.80;;
75941;SDS011;64622;46.220;19.878;2022-11-12T06:25:37;56.05;;;32.40;;
75941;SDS011;64622;46.220;19.878;2022-11-12T06:28:22;60.67;;;33.80;;
75941;SDS011;64622;46.220;19.878;2022-11-12T06:31:07;53.83;;;29.83;;
75941;SDS011;64622;46.220;19.878;2022-11-12T06:33:52;55.40;;;31.55;;
75941;SDS011;64622;46.220;19.878;2022-11-12T06:36:37;78.80;;;42.80;;
75941;SDS011;64622;46.220;19.878;2022-11-12T06:39:22;67.68;;;36.72;;
75941;SDS011;64622;46.220;19.878;2022-11-12T06:42:07;55.30;;;32.17;;
75941;SDS011;64622;46.220;19.878;2022-11-12T06:44:52;65.20;;;37.03;;
75941;SDS011;64622;46.220;19.878;2022-11-12T06:47:37;79.45;;;42.70;;
75941;SDS011;64622;46.220;19.878;2022-11-12T06:50:22;76.40;;;40.77;;
75941;SDS011;64622;46.220;19.878;2022-11-12T06:53:07;55.58;;;29.73;;
75941;SDS011;64622;46.220;19.878;2022-11-12T06:55:52;54.67;;;28.38;;
75941;SDS011;64622;46.220;19.878;2022-11-12T06:58:46;46.15;;;25.80;;
75941;SDS011;64622;46.220;19.878;2022-11-12T07:01:30;46.40;;;24.10;;
75941;SDS011;64622;46.220;19.878;2022-11-12T07:04:16;44.53;;;25.50;;
75941;SDS011;64622;46.220;19.878;2022-11-12T07:07:00;50.72;;;26.70;;
75941;SDS011;64622;46.220;19.878;2022-11-12T07:09:46;48.80;;;25.65;;
75941;SDS011;64622;46.220;19.878;2022-11-12T07:12:31;41.37;;;22.50;;
75941;SDS011;64622;46.220;19.878;2022-11-12T07:15:16;35.28;;;19.90;;
75941;SDS011;64622;46.220;19.878;2022-11-12T07:18:02;39.80;;;20.67;;
75941;SDS011;64622;46.220;19.878;2022-11-12T07:20:47;32.17;;;18.83;;
75941;SDS011;64622;46.220;19.878;2022-11-12T07:23:33;34.03;;;19.77;;
75941;SDS011;64622;46.220;19.878;2022-11-12T07:26:23;39.28;;;19.85;;
75941;SDS011;64622;46.220;19.878;2022-11-12T07:29:11;36.22;;;19.10;;
75941;SDS011;64622;46.220;19.878;2022-11-12T07:31:56;36.07;;;19.37;;
75941;SDS011;64622;46.220;19.878;2022-11-12T07:34:41;39.60;;;20.37;;
75941;SDS011;64622;46.220;19.878;2022-11-12T07:37:26;33.90;;;18.20;;
75941;SDS011;64622;46.220;19.878;2022-11-12T07:40:11;37.67;;;22.02;;
75941;SDS011;64622;46.220;19.878;2022-11-12T07:42:57;39.22;;;21.35;;
75941;SDS011;64622;46.220;19.878;2022-11-12T07:45:42;39.13;;;21.93;;
75941;SDS011;64622;46.220;19.878;2022-11-12T07:48:28;45.38;;;23.17;;
75941;SDS011;64622;46.220;19.878;2022-11-12T07:51:15;49.72;;;26.10;;
75941;SDS011;64622;46.220;19.878;2022-11-12T07:54:05;52.15;;;28.48;;
75941;SDS011;64622;46.220;19.878;2022-11-12T07:56:51;77.53;;;35.15;;
75941;SDS011;64622;46.220;19.878;2022-11-12T07:59:36;47.53;;;27.20;;
75941;SDS011;64622;46.220;19.878;2022-11-12T08:02:21;53.87;;;31.20;;
75941;SDS011;64622;46.220;19.878;2022-11-12T08:05:06;61.05;;;31.12;;
75941;SDS011;64622;46.220;19.878;2022-11-12T08:07:53;54.13;;;26.37;;
75941;SDS011;64622;46.220;19.878;2022-11-12T08:10:38;45.47;;;22.95;;
75941;SDS011;64622;46.220;19.878;2022-11-12T08:13:24;38.93;;;20.73;;
75941;SDS011;64622;46.220;19.878;2022-11-12T08:16:09;34.47;;;19.23;;
75941;SDS011;64622;46.220;19.878;2022-11-12T08:18:54;40.70;;;21.17;;
75941;SDS011;64622;46.220;19.878;2022-11-12T08:21:39;37.10;;;20.27;;
75941;SDS011;64622;46.220;19.878;2022-11-12T08:24:24;34.90;;;20.48;;
75941;SDS011;64622;46.220;19.878;2022-11-12T08:27:09;32.70;;;19.03;;
75941;SDS011;64622;46.220;19.878;2022-11-12T08:29:59;30.98;;;17.05;;
75941;SDS011;64622;46.220;19.878;2022-11-12T08:32:45;40.00;;;21.70;;
75941;SDS011;64622;46.220;19.878;2022-11-12T08:35:30;31.10;;;15.88;;
75941;SDS011;64622;46.220;19.878;2022-11-12T08:38:16;31.90;;;18.42;;
75941;SDS011;64622;46.220;19.878;2022-11-12T08:41:04;36.40;;;19.93;;
75941;SDS011;64622;46.220;19.878;2022-11-12T08:43:50;54.97;;;26.87;;
75941;SDS011;64622;46.220;19.878;2022-11-12T08:46:35;33.80;;;19.87;;
75941;SDS011;64622;46.220;19.878;2022-11-12T08:49:20;33.17;;;20.65;;
75941;SDS011;64622;46.220;19.878;2022-11-12T08:52:05;29.27;;;16.48;;
75941;SDS011;64622;46.220;19.878;2022-11-12T08:54:51;28.90;;;17.20;;
75941;SDS011;64622;46.220;19.878;2022-11-12T08:57:39;29.10;;;16.70;;
75941;SDS011;64622;46.220;19.878;2022-11-12T09:00:35;28.33;;;16.65;;
75941;SDS011;64622;46.220;19.878;2022-11-12T09:03:23;29.63;;;14.73;;
75941;SDS011;64622;46.220;19.878;2022-11-12T09:06:09;27.58;;;15.80;;
75941;SDS011;64622;46.220;19.878;2022-11-12T09:08:55;28.97;;;15.70;;
75941;SDS011;64622;46.220;19.878;2022-11-12T09:11:40;25.98;;;12.68;;
75941;SDS011;64622;46.220;19.878;2022-11-12T09:14:24;24.00;;;13.18;;
75941;SDS011;64622;46.220;19.878;2022-11-12T09:17:10;22.37;;;12.95;;
75941;SDS011;64622;46.220;19.878;2022-11-12T09:19:56;24.63;;;12.50;;
75941;SDS011;64622;46.220;19.878;2022-11-12T09:22:41;21.57;;;12.43;;
75941;SDS011;64622;46.220;19.878;2022-11-12T09:25:26;23.85;;;12.65;;
75941;SDS011;64622;46.220;19.878;2022-11-12T09:28:12;19.02;;;11.95;;
75941;SDS011;64622;46.220;19.878;2022-11-12T09:30:58;24.27;;;12.65;;
75941;SDS011;64622;46.220;19.878;2022-11-12T09:33:43;20.55;;;12.20;;
75941;SDS011;64622;46.220;19.878;2022-11-12T09:36:28;24.07;;;12.13;;
75941;SDS011;64622;46.220;19.878;2022-11-12T09:39:13;19.77;;;10.80;;
75941;SDS011;64622;46.220;19.878;2022-11-12T09:41:58;22.80;;;12.68;;
75941;SDS011;64622;46.220;19.878;2022-11-12T09:44:44;22.42;;;10.65;;
75941;SDS011;64622;46.220;19.878;2022-11-12T09:47:41;23.30;;;11.73;;
75941;SDS011;64622;46.220;19.878;2022-11-12T09:50:35;22.60;;;11.83;;
75941;SDS011;64622;46.220;19.878;2022-11-12T09:56:31;18.85;;;9.77;;
75941;SDS011;64622;46.220;19.878;2022-11-12T09:59:16;16.40;;;9.43;;
75941;SDS011;64622;46.220;19.878;2022-11-12T10:02:15;19.42;;;10.82;;
75941;SDS011;64622;46.220;19.878;2022-11-12T10:14:16;18.60;;;9.25;;
75941;SDS011;64622;46.220;19.878;2022-11-12T10:17:35;20.42;;;10.07;;
75941;SDS011;64622;46.220;19.878;2022-11-12T10:20:35;20.87;;;10.33;;
75941;SDS011;64622;46.220;19.878;2022-11-12T10:23:28;20.92;;;9.98;;
75941;SDS011;64622;46.220;19.878;2022-11-12T10:26:36;19.55;;;10.43;;
75941;SDS011;64622;46.220;19.878;2022-11-12T10:29:27;18.52;;;10.27;;
75941;SDS011;64622;46.220;19.878;2022-11-12T10:32:23;19.33;;;9.50;;
75941;SDS011;64622;46.220;19.878;2022-11-12T10:35:09;18.73;;;10.10;;
75941;SDS011;64622;46.220;19.878;2022-11-12T10:37:59;18.23;;;8.90;;
75941;SDS011;64622;46.220;19.878;2022-11-12T10:40:48;17.70;;;9.00;;
75941;SDS011;64622;46.220;19.878;2022-11-12T10:43:33;20.17;;;8.98;;
75941;SDS011;64622;46.220;19.878;2022-11-12T10:46:36;18.45;;;8.93;;
75941;SDS011;64622;46.220;19.878;2022-11-12T10:49:23;21.20;;;9.60;;
75941;SDS011;64622;46.220;19.878;2022-11-12T10:52:22;17.25;;;9.23;;
75941;SDS011;64622;46.220;19.878;2022-11-12T10:55:16;19.17;;;9.57;;
75941;SDS011;64622;46.220;19.878;2022-11-12T11:01:00;20.12;;;9.43;;
75941;SDS011;64622;46.220;19.878;2022-11-12T11:03:54;15.30;;;7.77;;
75941;SDS011;64622;46.220;19.878;2022-11-12T11:06:41;16.65;;;8.95;;
75941;SDS011;64622;46.220;19.878;2022-11-12T11:09:27;21.05;;;10.10;;
75941;SDS011;64622;46.220;19.878;2022-11-12T11:12:26;20.30;;;9.27;;
75941;SDS011;64622;46.220;19.878;2022-11-12T11:15:21;18.17;;;9.63;;
75941;SDS011;64622;46.220;19.878;2022-11-12T11:18:08;18.23;;;11.40;;
75941;SDS011;64622;46.220;19.878;2022-11-12T11:21:07;22.45;;;9.77;;
75941;SDS011;64622;46.220;19.878;2022-11-12T11:27:23;18.95;;;10.30;;
75941;SDS011;64622;46.220;19.878;2022-11-12T11:30:13;14.32;;;6.85;;
75941;SDS011;64622;46.220;19.878;2022-11-12T11:33:04;18.43;;;8.37;;
75941;SDS011;64622;46.220;19.878;2022-11-12T11:45:16;20.55;;;9.13;;
75941;SDS011;64622;46.220;19.878;2022-11-12T11:48:13;22.80;;;10.10;;
75941;SDS011;64622;46.220;19.878;2022-11-12T11:51:04;18.95;;;9.60;;
75941;SDS011;64622;46.220;19.878;2022-11-12T11:56:47;19.62;;;9.00;;
75941;SDS011;64622;46.220;19.878;2022-11-12T11:59:39;17.45;;;8.18;;
75941;SDS011;64622;46.220;19.878;2022-11-12T12:09:22;18.60;;;9.45;;
75941;SDS011;64622;46.220;19.878;2022-11-12T12:21:11;19.30;;;9.48;;
75941;SDS011;64622;46.220;19.878;2022-11-12T12:26:54;20.40;;;9.68;;
75941;SDS011;64622;46.220;19.878;2022-11-12T12:29:43;18.23;;;9.57;;
75941;SDS011;64622;46.220;19.878;2022-11-12T12:45:43;18.10;;;8.77;;
75941;SDS011;64622;46.220;19.878;2022-11-12T12:48:33;20.37;;;9.10;;
75941;SDS011;64622;46.220;19.878;2022-11-12T12:51:22;19.55;;;8.93;;
75941;SDS011;64622;46.220;19.878;2022-11-12T12:57:28;19.65;;;10.43;;
75941;SDS011;64622;46.220;19.878;2022-11-12T13:00:32;17.05;;;9.23;;
75941;SDS011;64622;46.220;19.878;2022-11-12T13:09:29;20.08;;;8.32;;
75941;SDS011;64622;46.220;19.878;2022-11-12T13:12:16;16.95;;;7.90;;
75941;SDS011;64622;46.220;19.878;2022-11-12T13:15:08;19.20;;;7.22;;
75941;SDS011;64622;46.220;19.878;2022-11-12T13:17:54;14.10;;;7.30;;
75941;SDS011;64622;46.220;19.878;2022-11-12T13:20:40;12.98;;;6.85;;
75941;SDS011;64622;46.220;19.878;2022-11-12T13:23:41;14.07;;;6.05;;
75941;SDS011;64622;46.220;19.878;2022-11-12T13:32:38;14.10;;;5.30;;
75941;SDS011;64622;46.220;19.878;2022-11-12T13:35:38;15.50;;;6.45;;
75941;SDS011;64622;46.220;19.878;2022-11-12T13:38:23;15.57;;;7.10;;
75941;SDS011;64622;46.220;19.878;2022-11-12T13:41:16;16.25;;;7.07;;
75941;SDS011;64622;46.220;19.878;2022-11-12T13:44:24;13.57;;;5.65;;
75941;SDS011;64622;46.220;19.878;2022-11-12T13:47:14;14.87;;;6.40;;
75941;SDS011;64622;46.220;19.878;2022-11-12T13:50:02;16.80;;;7.68;;
75941;SDS011;64622;46.220;19.878;2022-11-12T13:52:52;14.63;;;7.40;;
75941;SDS011;64622;46.220;19.878;2022-11-12T13:55:37;19.05;;;7.53;;
75941;SDS011;64622;46.220;19.878;2022-11-12T13:58:32;17.50;;;6.07;;
75941;SDS011;64622;46.220;19.878;2022-11-12T14:01:20;16.93;;;7.00;;
75941;SDS011;64622;46.220;19.878;2022-11-12T14:04:07;15.10;;;6.95;;
75941;SDS011;64622;46.220;19.878;2022-11-12T14:07:59;14.68;;;7.30;;
75941;SDS011;64622;46.220;19.878;2022-11-12T14:10:32;17.92;;;7.55;;
75941;SDS011;64622;46.220;19.878;2022-11-12T14:14:07;15.45;;;7.40;;
75941;SDS011;64622;46.220;19.878;2022-11-12T14:17:14;15.67;;;7.77;;
75941;SDS011;64622;46.220;19.878;2022-11-12T14:20:22;16.10;;;8.07;;
75941;SDS011;64622;46.220;19.878;2022-11-12T14:23:21;18.05;;;8.20;;
75941;SDS011;64622;46.220;19.878;2022-11-12T14:26:08;17.27;;;7.95;;
75941;SDS011;64622;46.220;19.878;2022-11-12T14:28:55;18.05;;;7.68;;
75941;SDS011;64622;46.220;19.878;2022-11-12T14:31:40;16.90;;;8.80;;
75941;SDS011;64622;46.220;19.878;2022-11-12T14:34:27;16.58;;;8.10;;
75941;SDS011;64622;46.220;19.878;2022-11-12T14:37:35;14.98;;;7.65;;
75941;SDS011;64622;46.220;19.878;2022-11-12T14:40:21;17.95;;;8.07;;
75941;SDS011;64622;46.220;19.878;2022-11-12T14:43:42;16.35;;;8.85;;
75941;SDS011;64622;46.220;19.878;2022-11-12T14:49:18;17.62;;;8.40;;
75941;SDS011;64622;46.220;19.878;2022-11-12T14:54:57;23.60;;;11.93;;
75941;SDS011;64622;46.220;19.878;2022-11-12T14:57:50;26.70;;;13.00;;
75941;SDS011;64622;46.220;19.878;2022-11-12T15:00:37;25.53;;;13.67;;
75941;SDS011;64622;46.220;19.878;2022-11-12T15:03:29;29.05;;;13.77;;
75941;SDS011;64622;46.220;19.878;2022-11-12T15:06:37;28.52;;;15.35;;
75941;SDS011;64622;46.220;19.878;2022-11-12T15:09:35;26.87;;;15.60;;
75941;SDS011;64622;46.220;19.878;2022-11-12T15:12:22;38.10;;;17.05;;
75941;SDS011;64622;46.220;19.878;2022-11-12T15:15:18;39.00;;;20.37;;
75941;SDS011;64622;46.220;19.878;2022-11-12T15:18:20;33.63;;;18.67;;
75941;SDS011;64622;46.220;19.878;2022-11-12T15:24:03;41.67;;;25.88;;
75941;SDS011;64622;46.220;19.878;2022-11-12T15:26:51;51.33;;;24.73;;
75941;SDS011;64622;46.220;19.878;2022-11-12T15:29:40;346.33;;;133.80;;
75941;SDS011;64622;46.220;19.878;2022-11-12T15:32:29;351.50;;;126.90;;
75941;SDS011;64622;46.220;19.878;2022-11-12T15:38:19;90.97;;;40.67;;
75941;SDS011;64622;46.220;19.878;2022-11-12T15:41:17;255.60;;;95.40;;
75941;SDS011;64622;46.220;19.878;2022-11-12T15:44:07;284.90;;;107.97;;
75941;SDS011;64622;46.220;19.878;2022-11-12T15:46:54;198.35;;;78.15;;
75941;SDS011;64622;46.220;19.878;2022-11-12T15:49:48;200.30;;;74.62;;
75941;SDS011;64622;46.220;19.878;2022-11-12T15:52:42;167.55;;;65.53;;
75941;SDS011;64622;46.220;19.878;2022-11-12T15:55:27;168.75;;;65.87;;
75941;SDS011;64622;46.220;19.878;2022-11-12T15:58:16;185.57;;;69.90;;
75941;SDS011;64622;46.220;19.878;2022-11-12T16:01:03;159.55;;;64.40;;
75941;SDS011;64622;46.220;19.878;2022-11-12T16:03:49;194.43;;;70.00;;
75941;SDS011;64622;46.220;19.878;2022-11-12T16:06:34;181.57;;;62.15;;
75941;SDS011;64622;46.220;19.878;2022-11-12T16:09:19;141.40;;;54.05;;
75941;SDS011;64622;46.220;19.878;2022-11-12T16:12:07;149.37;;;58.10;;
75941;SDS011;64622;46.220;19.878;2022-11-12T16:14:56;156.07;;;64.22;;
75941;SDS011;64622;46.220;19.878;2022-11-12T16:17:43;167.18;;;68.45;;
75941;SDS011;64622;46.220;19.878;2022-11-12T16:20:30;161.77;;;62.10;;
75941;SDS011;64622;46.220;19.878;2022-11-12T16:23:18;150.15;;;56.78;;
75941;SDS011;64622;46.220;19.878;2022-11-12T16:26:03;113.10;;;49.00;;
75941;SDS011;64622;46.220;19.878;2022-11-12T16:28:51;87.90;;;42.45;;
75941;SDS011;64622;46.220;19.878;2022-11-12T16:31:36;94.57;;;49.55;;
75941;SDS011;64622;46.220;19.878;2022-11-12T16:34:21;110.65;;;46.53;;
75941;SDS011;64622;46.220;19.878;2022-11-12T16:37:08;119.97;;;49.35;;
75941;SDS011;64622;46.220;19.878;2022-11-12T16:39:56;91.33;;;44.60;;
75941;SDS011;64622;46.220;19.878;2022-11-12T16:42:41;89.53;;;40.95;;
75941;SDS011;64622;46.220;19.878;2022-11-12T16:45:37;73.12;;;38.88;;
75941;SDS011;64622;46.220;19.878;2022-11-12T16:48:24;83.55;;;43.53;;
75941;SDS011;64622;46.220;19.878;2022-11-12T16:51:10;93.82;;;48.15;;
75941;SDS011;64622;46.220;19.878;2022-11-12T16:53:59;87.37;;;48.03;;
75941;SDS011;64622;46.220;19.878;2022-11-12T16:56:45;79.78;;;44.25;;
75941;SDS011;64622;46.220;19.878;2022-11-12T16:59:30;87.25;;;44.97;;
75941;SDS011;64622;46.220;19.878;2022-11-12T17:02:15;71.78;;;39.00;;
75941;SDS011;64622;46.220;19.878;2022-11-12T17:05:03;83.93;;;40.85;;
75941;SDS011;64622;46.220;19.878;2022-11-12T17:07:55;69.00;;;38.27;;
75941;SDS011;64622;46.220;19.878;2022-11-12T17:10:41;71.03;;;39.10;;
75941;SDS011;64622;46.220;19.878;2022-11-12T17:13:26;76.75;;;40.70;;
75941;SDS011;64622;46.220;19.878;2022-11-12T17:16:11;72.43;;;37.25;;
75941;SDS011;64622;46.220;19.878;2022-11-12T17:18:57;107.82;;;58.20;;
75941;SDS011;64622;46.220;19.878;2022-11-12T17:21:43;79.50;;;42.17;;
75941;SDS011;64622;46.220;19.878;2022-11-12T17:24:28;86.72;;;41.80;;
75941;SDS011;64622;46.220;19.878;2022-11-12T17:27:13;106.28;;;55.83;;
75941;SDS011;64622;46.220;19.878;2022-11-12T17:29:58;88.32;;;46.72;;
75941;SDS011;64622;46.220;19.878;2022-11-12T17:32:43;91.78;;;48.70;;
75941;SDS011;64622;46.220;19.878;2022-11-12T17:35:28;124.00;;;66.40;;
75941;SDS011;64622;46.220;19.878;2022-11-12T17:38:16;97.15;;;53.38;;
75941;SDS011;64622;46.220;19.878;2022-11-12T17:41:01;142.20;;;74.95;;